Genoa, Nevada
Current Conditions -  °F | °C
As of 9:35 PM on Friday 19 Dec 2014 (Local Time) from KMEV Reporting Station
Overcast Overcast  
Wind Chill: 37°   Ceiling: 5000
Heat Index: 37°   Visibility: 10mi
Dew Point: 37°   Wind: 3mph
Humidity: 100%   Direction: 60°ENE
Pressure: 30.14"   Gusts: NA
Location:  39°N, 119.85°W
Report Text: KMEV 200535Z AUTO 06003KT 10SM BKN050 BKN060 OVC120 03/03 A3014 RMK AO2
Loading
Personal Weather Stations






























Interactive Weather Map New forecast layout! Learn more

10-Day Weather Forecast

Advertisements
Track Severe Weather on mobile